sensor_id;sensor_type;location;lat;lon;timestamp;pressure;altitude;pressure_sealevel;temperature;humidity
54876;BME280;40764;48.472;8.166;2022-08-11T00:00:10;98589.28;;;16.53;53.29
54876;BME280;40764;48.472;8.166;2022-08-11T00:06:12;98590.25;;;16.66;52.57
54876;BME280;40764;48.472;8.166;2022-08-11T00:12:15;98584.09;;;16.69;52.93
54876;BME280;40764;48.472;8.166;2022-08-11T00:18:16;98588.31;;;16.66;53.07
54876;BME280;40764;48.472;8.166;2022-08-11T00:24:17;98591.53;;;16.42;53.66
54876;BME280;40764;48.472;8.166;2022-08-11T00:30:17;98593.31;;;16.47;53.63
54876;BME280;40764;48.472;8.166;2022-08-11T00:36:19;98599.31;;;16.32;54.40
54876;BME280;40764;48.472;8.166;2022-08-11T00:48:46;98601.09;;;16.19;54.95
54876;BME280;40764;48.472;8.166;2022-08-11T00:55:22;98596.19;;;16.07;55.22
54876;BME280;40764;48.472;8.166;2022-08-11T01:52:25;98589.66;;;15.46;57.89
54876;BME280;40764;48.472;8.166;2022-08-11T01:58:37;98588.41;;;15.22;59.19
54876;BME280;40764;48.472;8.166;2022-08-11T02:05:06;98594.72;;;15.22;59.28
54876;BME280;40764;48.472;8.166;2022-08-11T02:23:57;98592.13;;;14.95;60.13
54876;BME280;40764;48.472;8.166;2022-08-11T02:30:07;98583.25;;;14.98;60.37
54876;BME280;40764;48.472;8.166;2022-08-11T02:36:16;98586.59;;;14.86;60.64
54876;BME280;40764;48.472;8.166;2022-08-11T02:49:17;98579.00;;;14.69;61.09
54876;BME280;40764;48.472;8.166;2022-08-11T03:01:58;98580.63;;;14.70;61.32
54876;BME280;40764;48.472;8.166;2022-08-11T03:14:25;98582.47;;;14.52;61.82
54876;BME280;40764;48.472;8.166;2022-08-11T03:20:52;98581.09;;;14.27;63.09
54876;BME280;40764;48.472;8.166;2022-08-11T03:27:28;98584.22;;;14.35;62.74
54876;BME280;40764;48.472;8.166;2022-08-11T03:33:40;98577.56;;;14.13;63.72
54876;BME280;40764;48.472;8.166;2022-08-11T03:59:52;98573.22;;;13.99;64.69
54876;BME280;40764;48.472;8.166;2022-08-11T04:06:09;98582.09;;;13.95;64.57
54876;BME280;40764;48.472;8.166;2022-08-11T04:31:38;98587.53;;;13.59;66.52
54876;BME280;40764;48.472;8.166;2022-08-11T04:56:52;98590.03;;;13.70;66.97
54876;BME280;40764;48.472;8.166;2022-08-11T05:03:24;98589.84;;;13.66;67.01
54876;BME280;40764;48.472;8.166;2022-08-11T05:15:52;98593.06;;;13.95;66.34
54876;BME280;40764;48.472;8.166;2022-08-11T05:22:12;98588.78;;;14.03;66.68
54876;BME280;40764;48.472;8.166;2022-08-11T05:28:34;98597.53;;;14.19;67.22
54876;BME280;40764;48.472;8.166;2022-08-11T05:34:54;98591.84;;;14.38;66.59
54876;BME280;40764;48.472;8.166;2022-08-11T05:40:57;98593.34;;;14.57;66.60
54876;BME280;40764;48.472;8.166;2022-08-11T05:47:24;98586.44;;;14.69;66.55
54876;BME280;40764;48.472;8.166;2022-08-11T05:53:52;98589.53;;;14.90;67.71
54876;BME280;40764;48.472;8.166;2022-08-11T06:00:13;98583.69;;;15.13;65.69
54876;BME280;40764;48.472;8.166;2022-08-11T06:06:13;98575.09;;;15.55;64.72
54876;BME280;40764;48.472;8.166;2022-08-11T06:12:20;98577.22;;;15.97;62.63
54876;BME280;40764;48.472;8.166;2022-08-11T06:18:22;98580.78;;;16.15;63.04
54876;BME280;40764;48.472;8.166;2022-08-11T06:24:24;98568.00;;;16.54;62.04
54876;BME280;40764;48.472;8.166;2022-08-11T06:36:50;98571.50;;;17.15;60.08
54876;BME280;40764;48.472;8.166;2022-08-11T06:43:05;98564.50;;;17.55;57.95
54876;BME280;40764;48.472;8.166;2022-08-11T06:49:11;98561.91;;;17.97;55.17
54876;BME280;40764;48.472;8.166;2022-08-11T06:55:33;98546.78;;;18.36;55.66
54876;BME280;40764;48.472;8.166;2022-08-11T07:08:19;98545.88;;;19.31;50.87
54876;BME280;40764;48.472;8.166;2022-08-11T07:14:54;98545.97;;;20.20;46.99
54876;BME280;40764;48.472;8.166;2022-08-11T07:21:20;98537.88;;;20.95;45.74
54876;BME280;40764;48.472;8.166;2022-08-11T07:28:04;98532.19;;;21.67;41.42
54876;BME280;40764;48.472;8.166;2022-08-11T07:34:32;98542.19;;;22.03;40.86
54876;BME280;40764;48.472;8.166;2022-08-11T07:40:34;98534.88;;;22.30;41.07
54876;BME280;40764;48.472;8.166;2022-08-11T07:46:42;98545.22;;;22.68;39.38
54876;BME280;40764;48.472;8.166;2022-08-11T07:53:01;98531.38;;;22.91;38.28
54876;BME280;40764;48.472;8.166;2022-08-11T07:59:03;98533.88;;;23.19;37.02
54876;BME280;40764;48.472;8.166;2022-08-11T08:05:22;98529.47;;;23.41;35.68
54876;BME280;40764;48.472;8.166;2022-08-11T08:11:43;98524.66;;;23.61;35.51
54876;BME280;40764;48.472;8.166;2022-08-11T08:18:04;98523.72;;;23.76;35.21
54876;BME280;40764;48.472;8.166;2022-08-11T08:24:06;98517.25;;;23.98;35.13
54876;BME280;40764;48.472;8.166;2022-08-11T08:30:07;98526.25;;;24.11;35.20
54876;BME280;40764;48.472;8.166;2022-08-11T08:36:26;98531.53;;;24.20;34.50
54876;BME280;40764;48.472;8.166;2022-08-11T08:42:28;98528.66;;;24.39;34.95
54876;BME280;40764;48.472;8.166;2022-08-11T08:48:31;98521.72;;;24.59;34.02
54876;BME280;40764;48.472;8.166;2022-08-11T08:54:35;98526.19;;;24.64;34.16
54876;BME280;40764;48.472;8.166;2022-08-11T09:00:40;98514.09;;;24.56;33.75
54876;BME280;40764;48.472;8.166;2022-08-11T09:06:41;98518.41;;;24.84;32.94
54876;BME280;40764;48.472;8.166;2022-08-11T09:12:44;98530.91;;;24.93;31.08
54876;BME280;40764;48.472;8.166;2022-08-11T09:18:45;98533.88;;;25.08;30.51
54876;BME280;40764;48.472;8.166;2022-08-11T09:24:47;98519.22;;;25.18;30.59
54876;BME280;40764;48.472;8.166;2022-08-11T09:31:07;98515.78;;;25.39;31.06
54876;BME280;40764;48.472;8.166;2022-08-11T09:37:08;98521.13;;;25.51;30.25
54876;BME280;40764;48.472;8.166;2022-08-11T09:43:27;98509.19;;;25.57;30.93
54876;BME280;40764;48.472;8.166;2022-08-11T09:49:47;98503.81;;;25.82;29.75
54876;BME280;40764;48.472;8.166;2022-08-11T09:55:49;98500.63;;;25.87;28.42
54876;BME280;40764;48.472;8.166;2022-08-11T10:01:59;98497.91;;;26.02;29.12
54876;BME280;40764;48.472;8.166;2022-08-11T10:08:01;98505.19;;;26.10;29.07
54876;BME280;40764;48.472;8.166;2022-08-11T10:14:05;98490.41;;;26.20;29.44
54876;BME280;40764;48.472;8.166;2022-08-11T10:20:25;98486.94;;;26.37;28.50
54876;BME280;40764;48.472;8.166;2022-08-11T10:26:27;98490.16;;;26.43;28.13
54876;BME280;40764;48.472;8.166;2022-08-11T10:32:48;98483.06;;;26.63;28.16
54876;BME280;40764;48.472;8.166;2022-08-11T10:39:08;98485.09;;;26.88;26.97
54876;BME280;40764;48.472;8.166;2022-08-11T10:45:11;98483.16;;;26.99;26.56
54876;BME280;40764;48.472;8.166;2022-08-11T10:51:31;98469.06;;;26.81;27.86
54876;BME280;40764;48.472;8.166;2022-08-11T10:57:50;98463.91;;;26.90;27.57
54876;BME280;40764;48.472;8.166;2022-08-11T11:04:17;98461.13;;;27.11;27.96
54876;BME280;40764;48.472;8.166;2022-08-11T11:10:18;98457.13;;;27.16;27.39
54876;BME280;40764;48.472;8.166;2022-08-11T11:16:18;98459.16;;;27.30;26.24
54876;BME280;40764;48.472;8.166;2022-08-11T11:22:39;98459.97;;;27.48;27.20
54876;BME280;40764;48.472;8.166;2022-08-11T11:35:37;98441.09;;;27.70;26.71
54876;BME280;40764;48.472;8.166;2022-08-11T11:41:43;98432.69;;;27.77;27.02
54876;BME280;40764;48.472;8.166;2022-08-11T11:47:45;98434.72;;;27.62;26.82
54876;BME280;40764;48.472;8.166;2022-08-11T11:53:47;98424.56;;;28.11;26.47
54876;BME280;40764;48.472;8.166;2022-08-11T11:59:49;98424.94;;;28.20;25.99
54876;BME280;40764;48.472;8.166;2022-08-11T12:06:10;98418.09;;;28.28;25.80
54876;BME280;40764;48.472;8.166;2022-08-11T12:12:14;98415.69;;;28.20;26.31
54876;BME280;40764;48.472;8.166;2022-08-11T12:18:34;98413.53;;;28.56;24.97
54876;BME280;40764;48.472;8.166;2022-08-11T12:24:35;98394.91;;;28.80;26.06
54876;BME280;40764;48.472;8.166;2022-08-11T12:30:55;98405.75;;;28.85;24.44
54876;BME280;40764;48.472;8.166;2022-08-11T12:36:57;98391.28;;;28.86;23.50
54876;BME280;40764;48.472;8.166;2022-08-11T12:43:01;98383.41;;;29.15;23.69
54876;BME280;40764;48.472;8.166;2022-08-11T12:49:21;98366.28;;;29.44;23.96
54876;BME280;40764;48.472;8.166;2022-08-11T12:55:41;98364.16;;;29.58;23.43
54876;BME280;40764;48.472;8.166;2022-08-11T13:02:01;98371.03;;;29.54;22.16
54876;BME280;40764;48.472;8.166;2022-08-11T13:08:26;98365.22;;;29.30;21.54
54876;BME280;40764;48.472;8.166;2022-08-11T13:14:27;98356.56;;;29.55;22.02
54876;BME280;40764;48.472;8.166;2022-08-11T13:20:29;98347.69;;;29.91;21.38
54876;BME280;40764;48.472;8.166;2022-08-11T13:26:32;98351.03;;;30.16;21.55
54876;BME280;40764;48.472;8.166;2022-08-11T13:32:33;98356.25;;;30.18;21.74
54876;BME280;40764;48.472;8.166;2022-08-11T13:38:34;98337.75;;;30.17;22.48
54876;BME280;40764;48.472;8.166;2022-08-11T13:44:36;98330.84;;;30.48;21.33
54876;BME280;40764;48.472;8.166;2022-08-11T13:50:38;98327.63;;;30.19;21.19
54876;BME280;40764;48.472;8.166;2022-08-11T13:57:02;98313.56;;;30.46;21.65
54876;BME280;40764;48.472;8.166;2022-08-11T14:03:08;98305.53;;;30.72;21.43
54876;BME280;40764;48.472;8.166;2022-08-11T14:09:11;98307.25;;;30.89;21.06
54876;BME280;40764;48.472;8.166;2022-08-11T14:21:28;98288.63;;;30.95;20.61
54876;BME280;40764;48.472;8.166;2022-08-11T14:27:47;98296.91;;;31.06;21.59
54876;BME280;40764;48.472;8.166;2022-08-11T14:33:52;98292.72;;;31.14;20.65
54876;BME280;40764;48.472;8.166;2022-08-11T14:39:58;98283.94;;;30.85;21.13
54876;BME280;40764;48.472;8.166;2022-08-11T14:46:00;98281.19;;;31.05;20.25
54876;BME280;40764;48.472;8.166;2022-08-11T14:52:19;98272.31;;;30.83;20.49
54876;BME280;40764;48.472;8.166;2022-08-11T14:58:21;98277.09;;;30.86;20.78
54876;BME280;40764;48.472;8.166;2022-08-11T15:04:23;98270.22;;;30.87;20.53
54876;BME280;40764;48.472;8.166;2022-08-11T15:10:24;98265.50;;;31.04;20.95
54876;BME280;40764;48.472;8.166;2022-08-11T15:16:26;98264.13;;;31.12;21.09
54876;BME280;40764;48.472;8.166;2022-08-11T15:22:46;98259.44;;;31.29;20.86
54876;BME280;40764;48.472;8.166;2022-08-11T15:29:05;98251.09;;;30.98;21.00
54876;BME280;40764;48.472;8.166;2022-08-11T15:35:26;98243.47;;;31.19;20.59
54876;BME280;40764;48.472;8.166;2022-08-11T15:41:52;98243.00;;;31.24;20.21
54876;BME280;40764;48.472;8.166;2022-08-11T15:48:14;98237.50;;;31.13;20.89
54876;BME280;40764;48.472;8.166;2022-08-11T15:54:18;98236.47;;;31.47;20.47
54876;BME280;40764;48.472;8.166;2022-08-11T16:00:20;98248.41;;;31.34;20.10
54876;BME280;40764;48.472;8.166;2022-08-11T16:06:53;98244.44;;;31.32;19.98
54876;BME280;40764;48.472;8.166;2022-08-11T16:13:04;98236.34;;;31.10;19.55
54876;BME280;40764;48.472;8.166;2022-08-11T16:19:06;98245.84;;;31.20;19.94
54876;BME280;40764;48.472;8.166;2022-08-11T16:25:13;98233.16;;;31.32;19.90
54876;BME280;40764;48.472;8.166;2022-08-11T16:31:14;98229.16;;;31.49;20.81
54876;BME280;40764;48.472;8.166;2022-08-11T16:37:15;98223.09;;;31.31;20.22
54876;BME280;40764;48.472;8.166;2022-08-11T16:43:40;98216.59;;;31.10;19.95
54876;BME280;40764;48.472;8.166;2022-08-11T16:50:01;98220.91;;;31.58;19.75
54876;BME280;40764;48.472;8.166;2022-08-11T16:56:02;98225.53;;;31.68;19.87
54876;BME280;40764;48.472;8.166;2022-08-11T17:02:07;98219.59;;;31.23;20.00
54876;BME280;40764;48.472;8.166;2022-08-11T17:08:09;98219.25;;;31.41;20.42
54876;BME280;40764;48.472;8.166;2022-08-11T17:14:37;98220.28;;;30.84;20.43
54876;BME280;40764;48.472;8.166;2022-08-11T17:20:39;98221.81;;;30.89;20.41
54876;BME280;40764;48.472;8.166;2022-08-11T17:26:41;98224.63;;;30.42;20.88
54876;BME280;40764;48.472;8.166;2022-08-11T17:32:57;98221.81;;;30.15;21.94
54876;BME280;40764;48.472;8.166;2022-08-11T17:39:17;98221.47;;;30.60;21.30
54876;BME280;40764;48.472;8.166;2022-08-11T17:45:19;98224.34;;;30.06;21.14
54876;BME280;40764;48.472;8.166;2022-08-11T17:51:42;98232.88;;;29.99;21.34
54876;BME280;40764;48.472;8.166;2022-08-11T17:58:02;98232.28;;;29.53;21.97
54876;BME280;40764;48.472;8.166;2022-08-11T18:04:22;98242.25;;;28.79;23.36
54876;BME280;40764;48.472;8.166;2022-08-11T18:10:23;98241.44;;;28.34;24.04
54876;BME280;40764;48.472;8.166;2022-08-11T18:16:43;98241.25;;;27.89;24.40
54876;BME280;40764;48.472;8.166;2022-08-11T18:23:05;98249.09;;;27.32;25.39
54876;BME280;40764;48.472;8.166;2022-08-11T18:29:25;98239.53;;;26.94;26.55
54876;BME280;40764;48.472;8.166;2022-08-11T18:35:49;98249.16;;;26.43;27.24
54876;BME280;40764;48.472;8.166;2022-08-11T18:42:13;98247.81;;;25.76;29.00
54876;BME280;40764;48.472;8.166;2022-08-11T18:48:34;98249.81;;;24.99;31.32
54876;BME280;40764;48.472;8.166;2022-08-11T18:54:57;98252.16;;;24.46;32.55
54876;BME280;40764;48.472;8.166;2022-08-11T19:01:18;98264.53;;;24.08;32.85
54876;BME280;40764;48.472;8.166;2022-08-11T19:07:38;98269.47;;;23.85;33.52
54876;BME280;40764;48.472;8.166;2022-08-11T19:14:01;98272.06;;;23.40;33.94
54876;BME280;40764;48.472;8.166;2022-08-11T19:20:22;98279.41;;;23.22;34.05
54876;BME280;40764;48.472;8.166;2022-08-11T19:26:42;98283.94;;;22.81;34.85
54876;BME280;40764;48.472;8.166;2022-08-11T19:33:02;98286.75;;;22.58;35.74
54876;BME280;40764;48.472;8.166;2022-08-11T19:39:21;98288.41;;;22.40;36.30
54876;BME280;40764;48.472;8.166;2022-08-11T19:45:42;98291.63;;;22.00;37.43
54876;BME280;40764;48.472;8.166;2022-08-11T19:52:02;98297.50;;;21.75;37.16
54876;BME280;40764;48.472;8.166;2022-08-11T19:58:21;98303.50;;;21.58;37.46
54876;BME280;40764;48.472;8.166;2022-08-11T20:04:41;98308.44;;;21.29;38.51
54876;BME280;40764;48.472;8.166;2022-08-11T20:11:00;98314.94;;;21.02;39.69
54876;BME280;40764;48.472;8.166;2022-08-11T20:17:23;98315.88;;;20.75;39.71
54876;BME280;40764;48.472;8.166;2022-08-11T20:23:45;98315.16;;;20.62;40.45
54876;BME280;40764;48.472;8.166;2022-08-11T20:30:06;98315.59;;;20.48;40.58
54876;BME280;40764;48.472;8.166;2022-08-11T20:36:28;98323.78;;;20.13;42.27
54876;BME280;40764;48.472;8.166;2022-08-11T20:42:48;98328.16;;;19.86;42.43
54876;BME280;40764;48.472;8.166;2022-08-11T20:49:08;98329.94;;;19.78;42.25
54876;BME280;40764;48.472;8.166;2022-08-11T20:55:28;98327.69;;;19.56;43.21
54876;BME280;40764;48.472;8.166;2022-08-11T21:01:48;98325.84;;;19.48;43.74
54876;BME280;40764;48.472;8.166;2022-08-11T21:08:08;98329.81;;;19.35;43.90
54876;BME280;40764;48.472;8.166;2022-08-11T21:14:30;98340.59;;;19.12;44.08
54876;BME280;40764;48.472;8.166;2022-08-11T21:20:51;98338.03;;;19.07;44.80
54876;BME280;40764;48.472;8.166;2022-08-11T21:27:14;98344.31;;;18.79;45.72
54876;BME280;40764;48.472;8.166;2022-08-11T21:33:35;98354.31;;;18.72;44.99
54876;BME280;40764;48.472;8.166;2022-08-11T21:39:57;98350.75;;;18.71;45.29
54876;BME280;40764;48.472;8.166;2022-08-11T21:46:20;98360.44;;;18.65;45.58
54876;BME280;40764;48.472;8.166;2022-08-11T21:52:40;98345.59;;;18.37;46.57
54876;BME280;40764;48.472;8.166;2022-08-11T21:59:02;98349.97;;;18.25;46.49
54876;BME280;40764;48.472;8.166;2022-08-11T22:05:23;98351.25;;;17.95;47.79
54876;BME280;40764;48.472;8.166;2022-08-11T22:11:43;98339.47;;;17.65;48.94
54876;BME280;40764;48.472;8.166;2022-08-11T22:18:02;98345.63;;;17.62;48.30
54876;BME280;40764;48.472;8.166;2022-08-11T22:24:22;98338.34;;;17.57;48.37
54876;BME280;40764;48.472;8.166;2022-08-11T22:30:42;98342.34;;;17.48;48.78
54876;BME280;40764;48.472;8.166;2022-08-11T22:37:02;98346.19;;;17.55;48.20
54876;BME280;40764;48.472;8.166;2022-08-11T22:43:21;98339.78;;;17.43;48.80
54876;BME280;40764;48.472;8.166;2022-08-11T22:49:41;98335.34;;;17.50;48.61
54876;BME280;40764;48.472;8.166;2022-08-11T22:56:00;98341.31;;;17.31;48.93
54876;BME280;40764;48.472;8.166;2022-08-11T23:02:19;98345.56;;;17.08;50.03
54876;BME280;40764;48.472;8.166;2022-08-11T23:08:39;98352.69;;;17.09;49.16
54876;BME280;40764;48.472;8.166;2022-08-11T23:14:58;98343.94;;;16.78;50.22
54876;BME280;40764;48.472;8.166;2022-08-11T23:21:17;98346.94;;;16.93;49.95
54876;BME280;40764;48.472;8.166;2022-08-11T23:27:37;98340.84;;;16.79;49.86
54876;BME280;40764;48.472;8.166;2022-08-11T23:33:58;98354.97;;;16.78;50.10
54876;BME280;40764;48.472;8.166;2022-08-11T23:40:19;98356.06;;;16.85;49.69
54876;BME280;40764;48.472;8.166;2022-08-11T23:46:39;98347.34;;;16.75;50.29
54876;BME280;40764;48.472;8.166;2022-08-11T23:52:59;98356.34;;;16.54;51.28
54876;BME280;40764;48.472;8.166;2022-08-11T23:59:18;98348.41;;;16.44;51.01
